createdAt,value
2023-03-02T00:00:16.879Z,17.50
2023-03-02T00:02:47.022Z,17.57
2023-03-02T00:05:15.230Z,15.87
2023-03-02T00:07:43.389Z,17.60
2023-03-02T00:10:12.654Z,18.37
2023-03-02T00:12:40.940Z,19.27
2023-03-02T00:15:10.488Z,16.27
2023-03-02T00:17:38.479Z,18.47
2023-03-02T00:20:11.229Z,17.43
2023-03-02T00:22:39.744Z,17.53
2023-03-02T00:25:13.280Z,19.13
2023-03-02T00:27:41.789Z,16.90
2023-03-02T00:30:11.981Z,16.33
2023-03-02T00:32:40.033Z,16.80
2023-03-02T00:35:10.757Z,17.07
2023-03-02T00:37:39.841Z,16.70
2023-03-02T00:40:10.564Z,17.23
2023-03-02T00:42:39.525Z,18.07
2023-03-02T00:45:08.712Z,17.03
2023-03-02T00:47:38.136Z,19.57
2023-03-02T00:50:08.242Z,18.53
2023-03-02T00:52:37.967Z,18.87
2023-03-02T00:55:07.625Z,17.67
2023-03-02T00:57:35.588Z,20.37
2023-03-02T01:00:04.869Z,19.03
2023-03-02T01:02:33.235Z,19.83
2023-03-02T01:05:03.326Z,18.57
2023-03-02T01:07:31.581Z,16.80
2023-03-02T01:10:01.138Z,17.73
2023-03-02T01:12:29.349Z,17.00
2023-03-02T01:15:00.380Z,16.47
2023-03-02T01:17:29.213Z,19.83
2023-03-02T01:19:57.588Z,15.33
2023-03-02T01:22:26.245Z,18.43
2023-03-02T01:24:54.288Z,19.30
2023-03-02T01:27:23.796Z,17.07
2023-03-02T01:29:52.062Z,19.13
2023-03-02T01:32:21.163Z,19.10
2023-03-02T01:34:49.136Z,21.57
2023-03-02T01:37:17.299Z,19.90
2023-03-02T01:39:45.298Z,16.73
2023-03-02T01:42:13.653Z,18.53
2023-03-02T01:44:46.491Z,17.23
2023-03-02T01:47:22.939Z,18.70
2023-03-02T01:49:54.288Z,17.27
2023-03-02T01:52:24.068Z,18.43
2023-03-02T01:54:54.712Z,22.40
2023-03-02T01:57:26.213Z,18.03
2023-03-02T02:00:01.169Z,17.37
2023-03-02T02:02:30.204Z,18.70
2023-03-02T02:04:59.010Z,18.83
2023-03-02T02:07:27.969Z,15.90
2023-03-02T02:09:56.789Z,18.70
2023-03-02T02:12:25.630Z,18.17
2023-03-02T02:14:56.153Z,18.70
2023-03-02T02:17:24.168Z,18.10
2023-03-02T02:20:05.926Z,18.30
2023-03-02T02:22:43.729Z,18.53
2023-03-02T02:25:23.797Z,18.97
2023-03-02T02:27:54.102Z,17.80
2023-03-02T02:30:23.553Z,17.70
2023-03-02T02:32:54.177Z,17.93
2023-03-02T02:35:27.373Z,19.50
2023-03-02T02:37:58.989Z,16.97
2023-03-02T02:40:43.983Z,18.33
2023-03-02T02:43:15.256Z,17.57
2023-03-02T02:45:43.709Z,18.43
2023-03-02T02:48:18.706Z,21.43
2023-03-02T02:50:49.727Z,21.57
2023-03-02T02:53:22.978Z,18.67
2023-03-02T02:55:54.570Z,17.73
2023-03-02T02:58:32.318Z,19.20
2023-03-02T03:01:01.113Z,18.83
2023-03-02T03:03:31.046Z,19.27
2023-03-02T03:06:00.382Z,20.50
2023-03-02T03:08:53.159Z,20.27
2023-03-02T03:11:24.461Z,21.67
2023-03-02T03:13:58.597Z,22.60
2023-03-02T03:16:29.518Z,21.33
2023-03-02T03:19:00.706Z,22.47
2023-03-02T03:21:29.020Z,21.07
2023-03-02T03:23:57.040Z,18.57
2023-03-02T03:26:25.368Z,20.27
2023-03-02T03:28:57.226Z,20.67
2023-03-02T03:31:27.305Z,20.27
2023-03-02T03:33:56.114Z,20.43
2023-03-02T03:36:24.268Z,21.33
2023-03-02T03:38:52.305Z,19.53
2023-03-02T03:41:20.564Z,18.93
2023-03-02T03:43:48.532Z,20.73
2023-03-02T03:46:18.471Z,20.60
2023-03-02T03:48:47.938Z,20.80
2023-03-02T03:51:16.212Z,21.33
2023-03-02T03:53:47.289Z,19.40
2023-03-02T03:56:15.471Z,20.50
2023-03-02T03:58:43.824Z,19.50
2023-03-02T04:01:14.942Z,20.90
2023-03-02T04:03:44.578Z,19.23
2023-03-02T04:06:26.799Z,20.73
2023-03-02T04:08:55.113Z,24.60
2023-03-02T04:11:23.079Z,22.40
2023-03-02T04:13:52.753Z,20.93
2023-03-02T04:16:20.809Z,23.57
2023-03-02T04:18:50.643Z,21.27
2023-03-02T04:21:19.801Z,19.57
2023-03-02T04:23:50.985Z,21.50
2023-03-02T04:26:19.345Z,23.33
2023-03-02T04:28:51.038Z,23.30
2023-03-02T04:31:22.418Z,21.13
2023-03-02T04:33:51.948Z,20.80
2023-03-02T04:36:20.811Z,20.53
2023-03-02T04:38:49.563Z,24.43
2023-03-02T04:41:19.613Z,20.47
2023-03-02T04:43:47.647Z,22.07
2023-03-02T04:46:19.429Z,20.33
2023-03-02T04:48:47.464Z,19.07
2023-03-02T04:51:25.397Z,19.73
2023-03-02T04:53:54.670Z,21.00
2023-03-02T04:56:23.806Z,18.80
2023-03-02T04:58:52.115Z,20.00
2023-03-02T05:01:21.501Z,18.23
2023-03-02T05:03:49.910Z,22.47
2023-03-02T05:06:21.940Z,18.43
2023-03-02T05:08:50.517Z,19.23
2023-03-02T05:11:23.012Z,20.37
2023-03-02T05:13:51.871Z,25.77
2023-03-02T05:16:20.012Z,19.50
2023-03-02T05:18:48.796Z,17.30
2023-03-02T05:21:19.896Z,17.73
2023-03-02T05:23:48.280Z,20.13
2023-03-02T05:26:16.663Z,19.20
2023-03-02T05:28:48.260Z,20.87
2023-03-02T05:31:20.530Z,20.07
2023-03-02T05:33:48.722Z,21.60
2023-03-02T05:36:31.452Z,24.13
2023-03-02T05:39:01.002Z,20.40
2023-03-02T05:41:29.157Z,19.83
2023-03-02T05:44:00.538Z,20.13
2023-03-02T05:46:30.220Z,17.77
2023-03-02T05:48:58.324Z,18.63
2023-03-02T05:51:26.328Z,19.47
2023-03-02T05:53:54.718Z,18.33
2023-03-02T05:56:24.300Z,19.03
2023-03-02T05:59:25.773Z,17.27
2023-03-02T06:01:58.875Z,17.90
2023-03-02T06:04:27.303Z,19.87
2023-03-02T06:06:55.526Z,22.67
2023-03-02T06:09:23.946Z,19.97
2023-03-02T06:11:54.627Z,20.97
2023-03-02T06:14:22.653Z,20.00
2023-03-02T06:16:51.212Z,18.13
2023-03-02T06:19:19.276Z,19.47
2023-03-02T06:21:47.608Z,22.57
2023-03-02T06:24:16.175Z,26.00
2023-03-02T06:26:44.906Z,17.13
2023-03-02T06:29:17.040Z,18.47
2023-03-02T06:31:45.252Z,20.97
2023-03-02T06:34:13.353Z,16.63
2023-03-02T06:36:41.726Z,17.90
2023-03-02T06:39:18.573Z,18.07
2023-03-02T06:41:48.492Z,19.27
2023-03-02T06:44:18.983Z,20.80
2023-03-02T06:46:47.114Z,19.70
2023-03-02T06:49:15.054Z,16.20
2023-03-02T06:51:43.115Z,18.97
2023-03-02T06:54:13.231Z,17.00
2023-03-02T06:56:44.302Z,16.60
2023-03-02T06:59:12.768Z,16.40
2023-03-02T07:01:42.195Z,16.13
2023-03-02T07:04:10.464Z,17.07
2023-03-02T07:06:38.928Z,14.77
2023-03-02T07:09:07.200Z,18.10
2023-03-02T07:11:35.518Z,18.93
2023-03-02T07:14:04.726Z,21.27
2023-03-02T07:16:35.335Z,14.23
2023-03-02T07:19:07.838Z,15.47
2023-03-02T07:21:35.921Z,16.23
2023-03-02T07:24:03.899Z,15.40
2023-03-02T07:26:33.139Z,16.83
2023-03-02T07:29:02.937Z,20.20
2023-03-02T07:31:31.964Z,14.70
2023-03-02T07:34:00.221Z,16.13
2023-03-02T07:36:30.050Z,17.10
2023-03-02T07:38:58.569Z,15.10
2023-03-02T07:41:27.679Z,16.37
2023-03-02T07:43:57.001Z,16.80
2023-03-02T07:46:25.275Z,22.40
2023-03-02T07:48:54.445Z,17.43
2023-03-02T07:51:22.643Z,16.83
2023-03-02T07:53:52.377Z,18.13
2023-03-02T07:56:20.967Z,13.30
2023-03-02T07:58:49.429Z,16.47
2023-03-02T08:01:18.202Z,15.90
2023-03-02T08:03:46.367Z,15.30
2023-03-02T08:06:14.578Z,19.27
2023-03-02T08:08:43.108Z,17.20
2023-03-02T08:11:17.600Z,15.80
2023-03-02T08:13:46.620Z,16.40
2023-03-02T08:16:16.942Z,15.00
2023-03-02T08:18:45.724Z,14.93
2023-03-02T08:21:16.156Z,13.80
2023-03-02T08:23:44.671Z,15.83
2023-03-02T08:26:17.585Z,15.73
2023-03-02T08:28:46.419Z,17.57
2023-03-02T08:31:15.827Z,15.53
2023-03-02T08:33:48.911Z,17.03
2023-03-02T08:36:19.346Z,16.73
2023-03-02T08:38:50.800Z,13.60
2023-03-02T08:41:25.327Z,15.57
2023-03-02T08:43:55.076Z,20.63
2023-03-02T08:46:23.720Z,16.73
2023-03-02T08:48:52.096Z,15.13
2023-03-02T08:51:23.039Z,21.00
2023-03-02T08:53:53.001Z,16.03
2023-03-02T08:56:25.402Z,14.93
2023-03-02T08:58:56.543Z,19.93
2023-03-02T09:01:30.157Z,17.90
2023-03-02T09:03:59.876Z,15.57
2023-03-02T09:06:29.702Z,15.37
2023-03-02T09:08:58.970Z,15.07
2023-03-02T09:11:29.289Z,15.20
2023-03-02T09:13:57.608Z,15.93
2023-03-02T09:16:26.363Z,14.27
2023-03-02T09:18:54.942Z,16.13
2023-03-02T09:21:23.146Z,18.00
2023-03-02T09:23:53.789Z,17.83
2023-03-02T09:26:21.824Z,15.77
2023-03-02T09:28:51.680Z,13.83
2023-03-02T09:31:19.855Z,17.27
2023-03-02T09:33:47.874Z,14.83
2023-03-02T09:36:20.911Z,13.80
2023-03-02T09:38:49.102Z,13.00
2023-03-02T09:41:49.863Z,14.43
2023-03-02T09:44:42.515Z,13.50
2023-03-02T09:47:33.466Z,14.90
2023-03-02T09:50:14.719Z,12.30
2023-03-02T09:52:51.409Z,13.73
2023-03-02T09:55:23.276Z,11.97
2023-03-02T09:57:53.114Z,14.17
2023-03-02T10:00:28.706Z,13.33
2023-03-02T10:03:11.413Z,14.23
2023-03-02T10:05:46.782Z,15.20
2023-03-02T10:08:18.593Z,13.37
2023-03-02T10:10:51.626Z,15.73
2023-03-02T10:13:26.208Z,12.73
2023-03-02T10:16:09.841Z,13.20
2023-03-02T10:18:42.195Z,16.03
2023-03-02T10:21:21.569Z,13.40
2023-03-02T10:23:57.745Z,14.43
2023-03-02T10:26:39.796Z,15.17
2023-03-02T10:29:33.832Z,11.10
2023-03-02T10:32:13.228Z,13.50
2023-03-02T10:34:41.299Z,13.20
2023-03-02T10:37:15.520Z,13.70
2023-03-02T10:39:44.186Z,11.57
2023-03-02T10:42:16.988Z,12.57
2023-03-02T10:44:49.521Z,15.63
2023-03-02T10:47:24.796Z,11.70
2023-03-02T10:49:53.714Z,12.87
2023-03-02T10:52:23.294Z,15.43
2023-03-02T10:55:02.246Z,12.10
2023-03-02T10:57:36.153Z,12.93
2023-03-02T11:00:14.739Z,14.40
2023-03-02T11:02:52.012Z,13.10
2023-03-02T11:05:30.091Z,13.10
2023-03-02T11:07:59.761Z,12.77
2023-03-02T11:10:31.784Z,11.07
2023-03-02T11:13:01.900Z,14.50
2023-03-02T11:15:37.787Z,13.60
2023-03-02T11:18:15.054Z,12.90
2023-03-02T11:20:46.599Z,13.50
2023-03-02T11:23:19.698Z,10.47
2023-03-02T11:25:53.073Z,10.60
2023-03-02T11:28:46.064Z,10.33
2023-03-02T11:31:25.165Z,13.70
2023-03-02T11:34:23.838Z,12.40
2023-03-02T11:37:07.782Z,13.47
2023-03-02T11:39:55.766Z,10.73
2023-03-02T11:42:30.057Z,15.03
2023-03-02T11:45:01.633Z,15.97
2023-03-02T11:47:32.606Z,11.83
2023-03-02T11:50:05.270Z,12.73
2023-03-02T11:52:37.807Z,12.15
2023-03-02T11:55:15.349Z,12.80
2023-03-02T11:57:48.663Z,11.20
2023-03-02T12:00:30.946Z,13.70
2023-03-02T12:03:10.545Z,11.47
2023-03-02T12:05:40.356Z,16.43
2023-03-02T12:08:29.158Z,8.83
2023-03-02T12:10:59.505Z,13.23
2023-03-02T12:13:29.747Z,10.73
2023-03-02T12:15:57.691Z,9.67
2023-03-02T12:18:55.809Z,9.50
2023-03-02T12:21:28.204Z,11.57
2023-03-02T12:23:59.718Z,12.50
2023-03-02T12:26:34.592Z,13.97
2023-03-02T12:29:06.300Z,11.03
2023-03-02T12:31:43.498Z,12.27
2023-03-02T12:34:35.992Z,14.50
2023-03-02T12:37:14.308Z,14.88
2023-03-02T12:40:10.233Z,16.23
2023-03-02T12:42:54.625Z,9.63
2023-03-02T12:45:36.110Z,11.10
2023-03-02T12:48:14.754Z,12.90
2023-03-02T12:50:44.156Z,10.57
2023-03-02T12:53:20.296Z,11.67
2023-03-02T12:55:48.518Z,11.43
2023-03-02T12:58:20.349Z,11.13
2023-03-02T13:00:53.019Z,12.00
2023-03-02T13:03:21.693Z,12.20
2023-03-02T13:05:49.780Z,16.50
2023-03-02T13:08:24.116Z,16.37
2023-03-02T13:10:54.283Z,11.03
2023-03-02T13:13:26.281Z,12.33
2023-03-02T13:15:57.333Z,13.10
2023-03-02T13:18:31.710Z,18.53
2023-03-02T13:21:00.589Z,16.17
2023-03-02T13:23:32.096Z,11.73
2023-03-02T13:26:01.792Z,15.17
2023-03-02T13:28:31.906Z,19.70
2023-03-02T13:31:02.243Z,11.87
2023-03-02T13:33:31.777Z,9.70
2023-03-02T13:36:00.322Z,10.20
2023-03-02T13:38:35.029Z,9.43
2023-03-02T13:41:03.917Z,10.80
2023-03-02T13:43:36.456Z,14.03
2023-03-02T13:46:06.268Z,8.33
2023-03-02T13:48:34.743Z,13.23
2023-03-02T13:51:04.933Z,11.30
2023-03-02T13:53:38.026Z,11.57
2023-03-02T13:56:06.515Z,12.63
2023-03-02T13:58:39.373Z,10.47
2023-03-02T14:01:07.895Z,11.47
2023-03-02T14:03:35.848Z,19.00
2023-03-02T14:06:05.914Z,8.63
2023-03-02T14:08:35.190Z,12.90
2023-03-02T14:11:05.031Z,9.80
2023-03-02T14:13:38.945Z,16.60
2023-03-02T14:16:07.934Z,14.97
2023-03-02T14:18:40.057Z,14.43
2023-03-02T14:21:13.932Z,8.80
2023-03-02T14:23:43.423Z,13.47
2023-03-02T14:26:28.909Z,10.07
2023-03-02T14:29:05.530Z,15.57
2023-03-02T14:31:34.426Z,12.40
2023-03-02T14:34:02.735Z,15.47
2023-03-02T14:36:33.125Z,12.83
2023-03-02T14:39:06.309Z,9.20
2023-03-02T14:41:43.956Z,11.80
2023-03-02T14:44:19.368Z,9.47
2023-03-02T14:46:47.510Z,12.83
2023-03-02T14:49:15.494Z,10.13
2023-03-02T14:51:45.917Z,11.37
2023-03-02T14:54:20.864Z,13.50
2023-03-02T14:56:50.447Z,13.33
2023-03-02T14:59:18.757Z,13.30
2023-03-02T15:01:46.976Z,12.20
2023-03-02T15:04:15.039Z,11.23
2023-03-02T15:06:44.543Z,10.93
2023-03-02T15:09:17.662Z,11.33
2023-03-02T15:11:45.771Z,10.03
2023-03-02T15:14:13.633Z,11.40
2023-03-02T15:16:42.815Z,10.83
2023-03-02T15:19:11.209Z,13.07
2023-03-02T15:21:44.639Z,11.63
2023-03-02T15:24:13.209Z,11.13
2023-03-02T15:26:42.728Z,11.93
2023-03-02T15:29:10.692Z,10.07
2023-03-02T15:31:38.651Z,14.00
2023-03-02T15:34:07.461Z,13.40
2023-03-02T15:36:35.657Z,11.10
2023-03-02T15:39:04.189Z,13.63
2023-03-02T15:41:32.720Z,14.43
2023-03-02T15:44:02.180Z,13.33
2023-03-02T15:46:30.255Z,12.57
2023-03-02T15:48:58.181Z,13.83
2023-03-02T15:51:26.191Z,11.17
2023-03-02T15:53:54.160Z,11.80
2023-03-02T15:56:22.897Z,13.43
2023-03-02T15:58:51.753Z,14.13
2023-03-02T16:01:21.108Z,11.53
2023-03-02T16:03:49.068Z,11.17
2023-03-02T16:06:17.032Z,16.20
2023-03-02T16:08:45.065Z,11.77
2023-03-02T16:11:18.668Z,15.70
2023-03-02T16:13:46.890Z,11.93
2023-03-02T16:16:14.912Z,12.17
2023-03-02T16:18:44.336Z,12.03
2023-03-02T16:21:14.422Z,15.03
2023-03-02T16:23:42.384Z,12.33
2023-03-02T16:26:12.476Z,13.70
2023-03-02T16:28:40.374Z,12.70
2023-03-02T16:31:10.394Z,11.30
2023-03-02T16:33:39.153Z,14.00
2023-03-02T16:36:09.691Z,15.40
2023-03-02T16:38:38.842Z,12.83
2023-03-02T16:41:13.874Z,12.80
2023-03-02T16:43:46.169Z,9.53
2023-03-02T16:46:14.633Z,14.33
2023-03-02T16:48:43.221Z,10.73
2023-03-02T16:51:13.261Z,12.30
2023-03-02T16:53:41.877Z,15.73
2023-03-02T16:56:10.751Z,10.80
2023-03-02T16:58:39.776Z,7.87
2023-03-02T17:01:09.078Z,11.50
2023-03-02T17:03:37.539Z,10.07
2023-03-02T17:06:07.308Z,10.80
2023-03-02T17:08:37.393Z,26.73
2023-03-02T17:11:05.717Z,11.87
2023-03-02T17:13:33.661Z,14.30
2023-03-02T17:16:01.686Z,18.93
2023-03-02T17:18:31.004Z,15.70
2023-03-02T17:21:00.008Z,19.70
2023-03-02T17:23:29.020Z,21.30
2023-03-02T17:25:58.417Z,21.23
2023-03-02T17:28:26.437Z,16.50
2023-03-02T17:30:54.636Z,18.30
2023-03-02T17:33:22.637Z,18.00
2023-03-02T17:35:51.488Z,11.77
2023-03-02T17:38:19.561Z,12.07
2023-03-02T17:40:47.590Z,12.10
2023-03-02T17:43:16.868Z,12.00
2023-03-02T17:45:45.703Z,10.77
2023-03-02T17:48:13.688Z,8.60
2023-03-02T17:50:41.729Z,12.50
2023-03-02T17:53:09.708Z,7.63
2023-03-02T17:55:38.903Z,9.17
2023-03-02T17:58:06.836Z,9.73
2023-03-02T18:00:36.232Z,10.07
2023-03-02T18:03:04.391Z,7.83
2023-03-02T18:05:32.337Z,10.83
2023-03-02T18:08:00.348Z,7.97
2023-03-02T18:10:28.425Z,9.13
2023-03-02T18:12:56.784Z,7.13
2023-03-02T18:15:27.220Z,7.53
2023-03-02T18:17:56.603Z,10.50
2023-03-02T18:20:24.586Z,10.87
2023-03-02T18:22:52.570Z,11.73
2023-03-02T18:25:20.678Z,9.87
2023-03-02T18:27:48.648Z,11.10
2023-03-02T18:30:17.882Z,8.90
2023-03-02T18:32:45.912Z,6.13
2023-03-02T18:35:16.068Z,9.37
2023-03-02T18:37:44.085Z,9.17
2023-03-02T18:40:13.630Z,6.67
2023-03-02T18:42:41.894Z,9.47
2023-03-02T18:45:11.838Z,7.73
2023-03-02T18:47:39.842Z,8.63
2023-03-02T18:50:09.034Z,7.17
2023-03-02T18:52:38.714Z,7.07
2023-03-02T18:55:08.904Z,6.93
2023-03-02T18:57:38.011Z,8.90
2023-03-02T19:00:08.408Z,11.33
2023-03-02T19:02:36.557Z,8.73
2023-03-02T19:05:04.686Z,7.20
2023-03-02T19:07:32.923Z,12.70
2023-03-02T19:10:02.458Z,7.70
2023-03-02T19:12:30.376Z,8.63
2023-03-02T19:14:59.264Z,11.20
2023-03-02T19:17:27.412Z,11.70
2023-03-02T19:19:55.389Z,9.67
2023-03-02T19:22:23.384Z,6.73
2023-03-02T19:24:51.356Z,9.63
2023-03-02T19:27:20.734Z,6.80
2023-03-02T19:29:48.657Z,8.53
2023-03-02T19:32:16.648Z,7.23
2023-03-02T19:34:44.699Z,7.70
2023-03-02T19:37:12.799Z,9.73
2023-03-02T19:39:41.033Z,8.77
2023-03-02T19:42:09.250Z,7.63
2023-03-02T19:44:38.773Z,7.23
2023-03-02T19:47:06.744Z,9.07
2023-03-02T19:49:34.704Z,9.57
2023-03-02T19:52:02.986Z,7.40
2023-03-02T19:54:31.031Z,8.47
2023-03-02T19:56:59.395Z,8.07
2023-03-02T19:59:27.384Z,15.00
2023-03-02T20:01:56.746Z,9.60
2023-03-02T20:04:24.733Z,8.97
2023-03-02T20:06:52.800Z,7.03
2023-03-02T20:09:21.444Z,8.27
2023-03-02T20:11:49.388Z,8.60
2023-03-02T20:14:32.788Z,9.20
2023-03-02T20:17:02.939Z,9.20
2023-03-02T20:19:31.215Z,7.67
2023-03-02T20:21:59.449Z,8.87
2023-03-02T20:24:27.451Z,8.33
2023-03-02T20:26:55.690Z,9.43
2023-03-02T20:29:23.689Z,7.87
2023-03-02T20:31:52.108Z,8.73
2023-03-02T20:34:22.068Z,8.40
2023-03-02T20:36:50.983Z,9.87
2023-03-02T20:39:26.019Z,11.53
2023-03-02T20:41:54.222Z,14.27
2023-03-02T20:44:24.236Z,9.17
2023-03-02T20:46:55.927Z,10.80
2023-03-02T20:49:28.855Z,10.27
2023-03-02T20:51:58.510Z,11.43
2023-03-02T20:54:27.570Z,9.77
2023-03-02T20:56:58.015Z,8.63
2023-03-02T20:59:27.438Z,9.00
2023-03-02T21:01:55.825Z,8.03
2023-03-02T21:04:24.203Z,8.40
2023-03-02T21:06:53.062Z,9.60
2023-03-02T21:09:22.677Z,9.73
2023-03-02T21:11:50.813Z,6.87
2023-03-02T21:14:20.533Z,6.13
2023-03-02T21:16:48.811Z,10.53
2023-03-02T21:19:21.429Z,7.53
2023-03-02T21:21:49.943Z,8.60
2023-03-02T21:24:18.053Z,7.17
2023-03-02T21:26:47.855Z,8.23
2023-03-02T21:29:16.737Z,7.23
2023-03-02T21:31:47.813Z,11.83
2023-03-02T21:34:18.903Z,8.33
2023-03-02T21:36:47.569Z,10.20
2023-03-02T21:39:16.509Z,11.70
2023-03-02T21:41:44.685Z,9.27
2023-03-02T21:44:13.435Z,11.10
2023-03-02T21:46:41.603Z,16.83
2023-03-02T21:49:11.243Z,8.83
2023-03-02T21:51:39.339Z,9.17
2023-03-02T21:54:10.065Z,10.60
2023-03-02T21:56:38.768Z,9.27
2023-03-02T21:59:08.694Z,7.87
2023-03-02T22:01:46.787Z,7.03
2023-03-02T22:04:19.830Z,9.57
2023-03-02T22:06:48.278Z,12.87
2023-03-02T22:09:16.340Z,12.77
2023-03-02T22:11:45.620Z,9.23
2023-03-02T22:14:15.210Z,17.70
2023-03-02T22:16:46.451Z,17.07
2023-03-02T22:19:35.396Z,16.73
2023-03-02T22:22:05.511Z,10.23
2023-03-02T22:24:35.179Z,10.53
2023-03-02T22:27:12.162Z,12.10
2023-03-02T22:29:42.945Z,12.87
2023-03-02T22:32:19.620Z,9.77
2023-03-02T22:34:51.512Z,10.13
2023-03-02T22:37:22.708Z,10.27
2023-03-02T22:39:54.789Z,12.67
2023-03-02T22:42:24.879Z,11.30
2023-03-02T22:45:02.905Z,11.07
2023-03-02T22:47:31.035Z,12.47
2023-03-02T22:50:14.924Z,10.90
2023-03-02T22:52:44.682Z,9.47
2023-03-02T22:55:36.908Z,9.77
2023-03-02T22:58:40.418Z,10.13
2023-03-02T23:01:21.220Z,12.07
2023-03-02T23:03:51.757Z,10.33
2023-03-02T23:06:29.516Z,11.23
2023-03-02T23:08:59.874Z,9.77
2023-03-02T23:11:29.672Z,10.37
2023-03-02T23:13:57.748Z,12.43
2023-03-02T23:16:28.374Z,12.90
2023-03-02T23:18:59.476Z,12.77
2023-03-02T23:21:34.531Z,10.03
2023-03-02T23:24:02.791Z,12.93
2023-03-02T23:26:32.396Z,11.60
2023-03-02T23:29:00.988Z,11.43
2023-03-02T23:31:29.071Z,13.40
2023-03-02T23:33:57.186Z,10.87
2023-03-02T23:36:26.499Z,10.43
2023-03-02T23:38:55.864Z,10.13
2023-03-02T23:41:23.931Z,13.43
2023-03-02T23:43:51.887Z,11.00
2023-03-02T23:46:21.868Z,14.27
2023-03-02T23:48:51.888Z,11.87
2023-03-02T23:51:20.102Z,13.60
2023-03-02T23:53:48.227Z,14.20
2023-03-02T23:56:17.603Z,9.40
2023-03-02T23:58:45.872Z,11.80
